createdAt,value
2018-09-27T00:24:01.367Z,0.1
2018-09-27T00:30:01.304Z,0.1
2018-09-27T01:40:01.238Z,0.1
2018-09-27T01:45:01.247Z,0.1
2018-09-27T02:37:01.366Z,0.1
2018-09-27T02:45:01.238Z,0.1
2018-09-27T03:00:01.368Z,0.1
2018-09-27T04:23:01.317Z,0.1
2018-09-27T04:26:01.126Z,0.2
2018-09-27T04:27:01.093Z,0.3
2018-09-27T04:29:01.306Z,0.4
2018-09-27T04:30:01.177Z,0.5
2018-09-27T04:32:06.096Z,0.7
2018-09-27T04:33:01.093Z,0.8
2018-09-27T04:34:01.346Z,0.9
2018-09-27T04:35:01.100Z,1.1
2018-09-27T04:36:01.095Z,1.3
2018-09-27T04:37:06.158Z,1.6
2018-09-27T04:38:01.096Z,1.9
2018-09-27T04:39:01.235Z,2.1
2018-09-27T04:40:01.098Z,2.6
2018-09-27T04:41:01.277Z,3.2
2018-09-27T04:42:06.098Z,3.9
2018-09-27T04:43:01.061Z,4.5
2018-09-27T04:44:01.435Z,4.9
2018-09-27T04:45:01.103Z,5.5
2018-09-27T04:46:01.092Z,6.1
2018-09-27T04:47:01.122Z,6.9
2018-09-27T04:48:01.094Z,7.7
2018-09-27T04:49:01.236Z,8.9
2018-09-27T04:50:01.097Z,10.3
2018-09-27T04:51:01.094Z,12.1
2018-09-27T04:52:01.124Z,14.4
2018-09-27T04:53:01.094Z,17.9
2018-09-27T04:54:01.366Z,23.7
2018-09-27T04:55:01.094Z,30.5
2018-09-27T04:56:01.098Z,38.0
2018-09-27T04:57:01.117Z,47.3
2018-09-27T04:58:01.119Z,58.2
2018-09-27T04:59:01.310Z,69.7
2018-09-27T05:00:01.166Z,81.6
2018-09-27T05:01:01.223Z,93.9
2018-09-27T05:02:01.097Z,112.7
2018-09-27T05:03:01.244Z,134.2
2018-09-27T05:04:01.247Z,158.6
2018-09-27T05:05:01.098Z,186.1
2018-09-27T05:06:01.102Z,217.6
2018-09-27T05:07:01.099Z,259.1
2018-09-27T05:08:01.144Z,307.1
2018-09-27T05:09:01.237Z,363.4
2018-09-27T05:10:01.097Z,430.7
2018-09-27T05:11:01.097Z,500.7
2018-09-27T05:12:01.130Z,572.3
2018-09-27T05:13:01.106Z,638.2
2018-09-27T05:14:01.358Z,695.7
2018-09-27T05:15:01.102Z,748.6
2018-09-27T05:16:01.162Z,815.7
2018-09-27T05:17:01.141Z,888.9
2018-09-27T05:18:01.108Z,964.6
2018-09-27T05:19:01.240Z,1029.1
2018-09-27T05:20:01.105Z,1101.8
2018-09-27T05:21:01.104Z,1164.5
2018-09-27T05:22:06.108Z,1240.1
2018-09-27T05:24:01.242Z,1335.7
2018-09-27T05:25:01.093Z,1418.1
2018-09-27T05:26:01.097Z,1506.6
2018-09-27T05:27:01.136Z,1637.9
2018-09-27T05:28:01.096Z,1799.9
2018-09-27T05:29:01.238Z,1969.5
2018-09-27T05:30:01.152Z,2136.6
2018-09-27T05:31:01.105Z,2317.0
2018-09-27T05:32:01.095Z,2490.0
2018-09-27T05:33:01.673Z,2729.6
2018-09-27T05:34:01.242Z,3038.7
2018-09-27T05:35:01.097Z,3411.1
2018-09-27T05:36:01.096Z,3824.8
2018-09-27T05:37:01.097Z,4239.5
2018-09-27T05:38:01.136Z,4643.7
2018-09-27T05:39:01.302Z,5029.8
2018-09-27T05:40:01.101Z,5467.1
2018-09-27T05:41:01.097Z,5888.9
2018-09-27T05:42:01.096Z,6293.9
2018-09-27T05:43:01.130Z,6724.0
2018-09-27T05:44:01.311Z,7196.7
2018-09-27T05:45:01.104Z,7740.9
2018-09-27T05:46:01.097Z,8222.6
2018-09-27T05:47:01.102Z,8760.0
2018-09-27T05:48:01.140Z,9286.4
2018-09-27T05:49:01.308Z,9785.2
2018-09-27T05:50:01.237Z,10304.7
2018-09-27T05:51:01.103Z,10912.5
2018-09-27T05:52:02.125Z,11514.4
2018-09-27T05:53:06.112Z,12158.9
2018-09-27T05:54:01.363Z,12806.9
2018-09-27T05:55:01.111Z,13377.5
2018-09-27T05:57:01.133Z,14268.1
2018-09-27T05:58:06.091Z,15056.6
2018-09-27T05:59:01.236Z,15763.3
2018-09-27T06:00:01.092Z,16482.6
2018-09-27T06:01:01.093Z,17170.7
2018-09-27T06:02:01.201Z,17930.7
2018-09-27T06:03:06.098Z,18583.6
2018-09-27T06:04:01.244Z,19164.6
2018-09-27T06:05:01.099Z,19846.4
2018-09-27T06:06:01.093Z,20466.0
2018-09-27T06:07:01.098Z,21309.6
2018-09-27T06:08:01.140Z,22002.7
2018-09-27T06:09:01.243Z,22530.4
2018-09-27T06:10:01.095Z,23049.4
2018-09-27T06:11:01.098Z,23683.7
2018-09-27T06:12:01.096Z,24056.5
2018-09-27T06:13:01.127Z,24548.2
2018-09-27T06:14:01.286Z,25199.1
2018-09-27T06:15:01.094Z,25626.9
2018-09-27T06:16:01.094Z,25969.4
2018-09-27T06:17:01.102Z,26140.4
2018-09-27T06:18:01.139Z,26397.7
2018-09-27T06:19:01.372Z,26772.3
2018-09-27T06:20:01.096Z,27155.9
2018-09-27T06:21:01.102Z,27697.5
2018-09-27T06:22:01.097Z,28035.2
2018-09-27T06:23:06.096Z,28753.5
2018-09-27T06:24:01.244Z,29731.5
2018-09-27T06:25:01.095Z,30660.2
2018-09-27T06:26:01.134Z,31279.0
2018-09-27T06:27:01.099Z,31736.9
2018-09-27T06:28:01.192Z,32294.2
2018-09-27T06:29:01.235Z,32663.5
2018-09-27T06:30:01.108Z,33111.9
2018-09-27T06:31:01.107Z,33784.3
2018-09-27T06:32:01.096Z,34685.1
2018-09-27T06:33:01.130Z,35857.7
2018-09-27T06:34:01.245Z,36856.1
2018-09-27T06:35:01.151Z,37826.5
2018-09-27T06:36:01.125Z,38679.5
2018-09-27T06:37:01.103Z,39391.9
2018-09-27T06:38:01.129Z,39779.9
2018-09-27T06:39:01.239Z,40139.0
2018-09-27T06:40:01.198Z,40852.7
2018-09-27T06:41:01.098Z,41777.9
2018-09-27T06:42:01.096Z,42718.2
2018-09-27T06:43:01.134Z,43180.9
2018-09-27T06:44:01.245Z,44293.3
2018-09-27T06:45:01.100Z,45108.3
2018-09-27T06:46:01.102Z,45613.5
2018-09-27T06:47:01.097Z,46337.8
2018-09-27T06:48:01.125Z,46378.1
2018-09-27T06:49:01.244Z,46787.7
2018-09-27T06:50:01.101Z,47674.5
2018-09-27T06:51:01.105Z,48225.9
2018-09-27T06:52:01.098Z,48536.2
2018-09-27T06:53:01.126Z,48681.1
2018-09-27T06:54:01.244Z,48264.5
2018-09-27T06:55:01.221Z,47239.1
2018-09-27T06:56:01.302Z,46889.7
2018-09-27T06:57:02.329Z,47617.3
2018-09-27T06:58:06.111Z,48135.1
2018-09-27T06:59:01.246Z,48460.9
2018-09-27T07:00:01.101Z,49110.4
2018-09-27T07:01:01.244Z,50348.8
2018-09-27T07:02:01.108Z,51434.3
2018-09-27T07:03:01.129Z,52623.8
2018-09-27T07:04:01.253Z,53453.1
2018-09-27T07:05:01.170Z,53352.6
2018-09-27T07:06:01.104Z,53097.1
2018-09-27T07:07:01.106Z,53102.9
2018-09-27T07:08:01.146Z,53549.0
2018-09-27T07:09:01.244Z,55301.5
2018-09-27T07:10:01.104Z,57352.8
2018-09-27T07:11:01.105Z,58740.3
2018-09-27T07:12:01.159Z,59135.2
2018-09-27T07:13:01.136Z,60071.7
2018-09-27T07:14:01.284Z,60601.8
2018-09-27T07:15:01.109Z,61191.0
2018-09-27T07:16:01.107Z,61332.5
2018-09-27T07:18:01.143Z,61598.3
2018-09-27T07:19:01.244Z,61915.5
2018-09-27T07:21:01.101Z,62556.4
2018-09-27T07:22:01.097Z,63633.1
2018-09-27T07:23:01.088Z,64669.1
2018-09-27T07:24:01.091Z,65535.0
2018-09-27T07:30:01.105Z,65535.0
2018-09-27T07:38:01.379Z,65215.5
2018-09-27T07:39:01.100Z,63671.5
2018-09-27T07:40:01.100Z,62639.3
2018-09-27T07:41:01.105Z,61527.5
2018-09-27T07:42:01.105Z,60800.1
2018-09-27T07:43:01.312Z,59355.7
2018-09-27T07:44:01.101Z,57954.3
2018-09-27T07:45:01.101Z,56472.1
2018-09-27T07:46:01.099Z,55263.5
2018-09-27T07:47:01.167Z,54038.9
2018-09-27T07:48:01.245Z,53261.3
2018-09-27T07:49:01.106Z,52417.2
2018-09-27T07:50:01.169Z,51525.1
2018-09-27T07:53:01.310Z,51692.7
2018-09-27T07:54:01.103Z,53236.7
2018-09-27T07:55:01.100Z,54268.9
2018-09-27T07:56:01.126Z,55380.7
2018-09-27T07:57:01.161Z,56108.1
2018-09-27T07:58:01.244Z,57552.5
2018-09-27T07:59:01.105Z,58953.9
2018-09-27T08:00:01.125Z,60436.1
2018-09-27T08:01:06.105Z,61644.7
2018-09-27T08:02:01.105Z,62869.3
2018-09-27T08:03:01.351Z,63646.9
2018-09-27T08:04:01.163Z,64491.0
2018-09-27T08:05:01.108Z,65383.1
2018-09-27T08:08:01.449Z,65535.0
2018-09-27T08:15:01.318Z,65535.0
2018-09-27T08:30:01.099Z,65535.0
2018-09-27T08:45:01.897Z,65535.0
2018-09-27T09:00:01.111Z,65535.0
2018-09-27T09:15:01.242Z,65535.0
2018-09-27T09:30:01.182Z,65535.0
2018-09-27T09:45:06.099Z,65535.0
2018-09-27T10:00:01.122Z,65535.0
2018-09-27T10:15:01.091Z,65535.0
2018-09-27T10:30:01.367Z,65535.0
2018-09-27T10:45:01.195Z,65535.0
2018-09-27T11:00:01.367Z,65535.0
2018-09-27T11:15:01.340Z,65535.0
2018-09-27T11:30:01.313Z,65535.0
2018-09-27T11:43:01.305Z,65198.7
2018-09-27T11:45:01.099Z,65198.7
2018-09-27T11:53:01.094Z,65096.2
2018-09-27T11:54:01.097Z,64539.1
2018-09-27T11:55:01.362Z,64328.4
2018-09-27T11:56:01.132Z,64114.0
2018-09-27T11:57:01.140Z,62614.5
2018-09-27T11:58:01.114Z,61993.0
2018-09-27T11:59:01.117Z,60706.7
2018-09-27T12:00:01.241Z,59074.4
2018-09-27T12:01:01.105Z,59000.5
2018-09-27T12:02:01.132Z,58109.5
2018-09-27T12:04:01.152Z,56886.3
2018-09-27T12:05:01.243Z,55616.5
2018-09-27T12:06:01.102Z,53972.3
2018-09-27T12:08:01.150Z,52062.1
2018-09-27T12:09:01.233Z,50371.7
2018-09-27T12:10:01.355Z,49009.7
2018-09-27T12:11:01.151Z,47480.9
2018-09-27T12:12:01.179Z,46625.9
2018-09-27T12:13:01.146Z,46714.8
2018-09-27T12:14:01.259Z,45750.9
2018-09-27T12:15:01.303Z,45269.1
2018-09-27T12:16:01.082Z,45081.5
2018-09-27T12:17:01.085Z,43408.9
2018-09-27T12:18:01.088Z,42824.5
2018-09-27T12:19:01.203Z,41487.8
2018-09-27T12:20:01.507Z,41961.9
2018-09-27T12:21:01.082Z,41669.0
2018-09-27T12:22:01.238Z,41752.6
2018-09-27T12:23:01.314Z,41780.1
2018-09-27T12:24:01.085Z,42006.9
2018-09-27T12:25:01.293Z,42544.7
2018-09-27T12:26:01.147Z,42993.1
2018-09-27T12:27:01.150Z,42138.7
2018-09-27T12:28:01.153Z,41632.1
2018-09-27T12:29:01.149Z,41581.9
2018-09-27T12:30:01.295Z,40977.5
2018-09-27T12:31:01.148Z,40538.4
2018-09-27T12:32:01.089Z,39753.6
2018-09-27T12:33:01.148Z,38692.3
2018-09-27T12:34:01.179Z,37823.5
2018-09-27T12:35:01.299Z,36069.7
2018-09-27T12:36:01.089Z,35178.9
2018-09-27T12:37:01.148Z,36008.7
2018-09-27T12:38:01.088Z,37369.9
2018-09-27T12:39:01.205Z,38242.6
2018-09-27T12:40:01.432Z,39620.9
2018-09-27T12:41:01.156Z,40912.1
2018-09-27T12:42:01.348Z,42579.5
2018-09-27T12:43:01.211Z,44167.7
2018-09-27T12:44:01.092Z,45907.2
2018-09-27T12:45:01.431Z,48112.3
2018-09-27T12:46:01.197Z,49727.6
2018-09-27T12:47:01.145Z,51456.3
2018-09-27T12:48:06.259Z,53159.0
2018-09-27T12:49:01.179Z,54399.7
2018-09-27T12:50:01.232Z,55714.7
2018-09-27T12:51:01.166Z,56758.7
2018-09-27T12:52:01.385Z,55951.5
2018-09-27T12:53:06.191Z,54533.7
2018-09-27T12:54:01.091Z,53219.8
2018-09-27T12:55:01.371Z,50819.9
2018-09-27T12:56:01.193Z,48485.1
2018-09-27T12:57:01.183Z,46435.9
2018-09-27T12:58:01.400Z,44314.9
2018-09-27T12:59:01.159Z,41916.4
2018-09-27T13:00:01.425Z,39749.8
2018-09-27T13:01:01.252Z,37857.9
2018-09-27T13:02:01.361Z,36695.1
2018-09-27T13:03:01.259Z,36144.1
2018-09-27T13:04:01.113Z,36099.9
2018-09-27T13:05:01.242Z,36404.6
2018-09-27T13:06:01.095Z,36977.0
2018-09-27T13:07:01.212Z,37495.5
2018-09-27T13:08:01.126Z,38459.5
2018-09-27T13:09:01.207Z,39983.7
2018-09-27T13:10:01.486Z,41263.5
2018-09-27T13:11:01.100Z,41979.6
2018-09-27T13:12:01.167Z,42840.4
2018-09-27T13:14:01.271Z,42988.9
2018-09-27T13:15:01.377Z,43475.3
2018-09-27T13:16:01.142Z,43747.9
2018-09-27T13:17:01.112Z,44317.7
2018-09-27T13:18:01.120Z,44360.4
2018-09-27T13:19:01.095Z,44065.9
2018-09-27T13:20:01.374Z,43535.6
2018-09-27T13:21:01.090Z,43604.9
2018-09-27T13:22:01.088Z,43932.3
2018-09-27T13:23:06.145Z,44082.1
2018-09-27T13:24:01.088Z,44135.3
2018-09-27T13:25:01.293Z,44025.9
2018-09-27T13:26:01.084Z,45148.9
2018-09-27T13:27:01.111Z,46624.9
2018-09-27T13:28:06.091Z,47131.5
2018-09-27T13:29:01.154Z,48663.8
2018-09-27T13:30:01.450Z,50435.3
2018-09-27T13:31:02.174Z,52139.5
2018-09-27T13:32:01.123Z,52920.7
2018-09-27T13:33:01.134Z,53812.2
2018-09-27T13:34:06.201Z,54297.6
2018-09-27T13:35:01.302Z,55132.4
2018-09-27T13:36:01.157Z,55946.3
2018-09-27T13:37:01.109Z,56309.1
2018-09-27T13:38:01.096Z,55948.9
2018-09-27T13:39:01.302Z,54718.7
2018-09-27T13:40:01.313Z,53183.2
2018-09-27T13:41:01.140Z,51158.6
2018-09-27T13:42:01.089Z,49618.3
2018-09-27T13:43:01.157Z,48203.7
2018-09-27T13:44:01.100Z,46252.9
2018-09-27T13:45:01.391Z,43860.8
2018-09-27T13:46:01.103Z,41340.1
2018-09-27T13:47:01.094Z,39739.6
2018-09-27T13:48:01.098Z,37771.1
2018-09-27T13:49:01.172Z,36356.2
2018-09-27T13:50:01.306Z,34707.0
2018-09-27T13:51:06.252Z,32401.0
2018-09-27T13:52:01.096Z,31186.8
2018-09-27T13:53:01.098Z,31654.5
2018-09-27T13:54:01.096Z,32243.5
2018-09-27T13:55:01.321Z,32642.7
2018-09-27T13:56:01.065Z,32630.7
2018-09-27T13:57:01.141Z,32192.1
2018-09-27T13:58:01.095Z,32858.0
2018-09-27T13:59:06.162Z,35290.5
2018-09-27T14:00:01.299Z,37102.1
2018-09-27T14:01:01.116Z,39205.6
2018-09-27T14:02:01.096Z,40376.1
2018-09-27T14:03:01.150Z,43315.7
2018-09-27T14:04:06.158Z,45924.7
2018-09-27T14:05:01.238Z,48278.3
2018-09-27T14:06:01.098Z,50584.3
2018-09-27T14:07:01.065Z,51945.4
2018-09-27T14:08:01.096Z,52707.5
2018-09-27T14:09:06.167Z,53328.0
2018-09-27T14:10:01.239Z,53693.7
2018-09-27T14:11:01.097Z,55730.3
2018-09-27T14:12:01.098Z,57852.1
2018-09-27T14:14:01.188Z,59538.8
2018-09-27T14:15:01.292Z,59826.3
2018-09-27T14:16:01.083Z,60779.7
2018-09-27T14:17:01.105Z,61554.3
2018-09-27T14:18:01.079Z,63168.7
2018-09-27T14:19:06.154Z,63228.9
2018-09-27T14:23:01.314Z,62319.7
2018-09-27T14:24:01.249Z,60407.3
2018-09-27T14:25:01.152Z,59822.3
2018-09-27T14:26:01.195Z,60527.5
2018-09-27T14:27:01.079Z,60420.0
2018-09-27T14:28:01.350Z,59424.8
2018-09-27T14:29:01.135Z,58659.1
2018-09-27T14:30:01.082Z,57918.4
2018-09-27T14:31:01.093Z,57761.0
2018-09-27T14:32:01.083Z,57080.8
2018-09-27T14:38:01.354Z,57990.0
2018-09-27T14:39:01.145Z,59902.5
2018-09-27T14:40:01.088Z,61430.6
2018-09-27T14:41:01.152Z,62088.3
2018-09-27T14:42:01.178Z,62195.8
2018-09-27T14:43:01.363Z,63191.0
2018-09-27T14:44:06.093Z,63956.7
2018-09-27T14:45:01.090Z,64697.4
2018-09-27T14:46:01.093Z,64854.8
2018-09-27T14:47:01.092Z,65535.0
2018-09-27T14:52:01.497Z,64975.5
2018-09-27T14:55:01.219Z,64898.7
2018-09-27T14:56:01.097Z,64775.7
2018-09-27T14:57:01.366Z,64684.6
2018-09-27T14:58:01.092Z,64323.9
2018-09-27T14:59:06.102Z,63974.2
2018-09-27T15:00:01.096Z,63534.3
2018-09-27T15:01:01.103Z,63006.6
2018-09-27T15:02:01.489Z,62256.3
2018-09-27T15:03:01.163Z,61284.3
2018-09-27T15:04:06.095Z,60141.5
2018-09-27T15:05:01.191Z,58839.9
2018-09-27T15:06:01.101Z,57466.9
2018-09-27T15:07:01.240Z,56431.9
2018-09-27T15:08:01.097Z,54749.7
2018-09-27T15:09:01.163Z,52999.6
2018-09-27T15:10:01.232Z,51235.0
2018-09-27T15:11:01.102Z,49451.5
2018-09-27T15:12:01.432Z,47695.9
2018-09-27T15:13:01.162Z,46183.7
2018-09-27T15:14:01.166Z,44655.3
2018-09-27T15:15:06.148Z,43144.1
2018-09-27T15:16:01.102Z,41566.9
2018-09-27T15:17:01.349Z,40184.1
2018-09-27T15:18:01.418Z,38939.4
2018-09-27T15:19:01.167Z,37890.5
2018-09-27T15:21:01.148Z,37045.7
2018-09-27T15:22:01.424Z,36206.0
2018-09-27T15:23:01.093Z,35497.5
2018-09-27T15:24:01.153Z,34776.9
2018-09-27T15:25:01.243Z,34064.6
2018-09-27T15:26:01.092Z,33445.7
2018-09-27T15:27:06.432Z,32873.0
2018-09-27T15:28:01.159Z,32122.8
2018-09-27T15:29:01.156Z,31332.1
2018-09-27T15:30:01.120Z,30474.8
2018-09-27T15:31:01.202Z,29668.2
2018-09-27T15:32:01.297Z,28977.9
2018-09-27T15:33:01.095Z,28294.5
2018-09-27T15:34:01.097Z,27676.2
2018-09-27T15:35:01.115Z,27008.4
2018-09-27T15:36:01.095Z,26261.5
2018-09-27T15:37:01.367Z,25563.1
2018-09-27T15:38:01.095Z,24910.2
2018-09-27T15:39:01.090Z,24292.3
2018-09-27T15:40:01.186Z,23681.7
2018-09-27T15:41:01.059Z,23030.1
2018-09-27T15:42:01.231Z,22363.7
2018-09-27T15:43:01.097Z,21795.8
2018-09-27T15:44:01.097Z,21287.5
2018-09-27T15:45:01.108Z,20839.6
2018-09-27T15:46:01.098Z,20398.4
2018-09-27T15:47:01.251Z,19969.2
2018-09-27T15:48:01.097Z,19558.3
2018-09-27T15:49:01.100Z,19174.1
2018-09-27T15:50:01.139Z,18818.9
2018-09-27T15:51:01.099Z,18499.8
2018-09-27T15:52:01.243Z,18210.0
2018-09-27T15:53:01.097Z,17963.6
2018-09-27T15:54:01.100Z,17739.8
2018-09-27T15:55:06.100Z,17519.5
2018-09-27T15:56:01.097Z,17308.8
2018-09-27T15:57:01.317Z,17094.9
2018-09-27T15:58:01.584Z,16861.2
2018-09-27T15:59:01.062Z,16600.9
2018-09-27T16:00:01.131Z,16304.9
2018-09-27T16:01:01.098Z,15997.2
2018-09-27T16:02:01.240Z,15692.3
2018-09-27T16:03:01.098Z,15386.9
2018-09-27T16:04:01.158Z,15082.3
2018-09-27T16:05:06.101Z,14789.4
2018-09-27T16:06:01.068Z,14471.1
2018-09-27T16:07:01.256Z,14099.3
2018-09-27T16:08:01.063Z,13695.1
2018-09-27T16:09:01.098Z,13316.7
2018-09-27T16:10:06.095Z,12973.1
2018-09-27T16:11:01.105Z,12614.7
2018-09-27T16:12:01.301Z,12294.7
2018-09-27T16:13:01.100Z,11987.0
2018-09-27T16:14:01.159Z,11683.6
2018-09-27T16:15:01.103Z,11387.7
2018-09-27T16:16:01.165Z,11093.4
2018-09-27T16:17:01.266Z,10819.2
2018-09-27T16:18:01.064Z,10549.7
2018-09-27T16:19:01.095Z,10272.0
2018-09-27T16:20:06.095Z,9967.7
2018-09-27T16:21:01.099Z,9648.8
2018-09-27T16:22:01.355Z,9323.1
2018-09-27T16:23:01.099Z,8982.1
2018-09-27T16:24:01.098Z,8637.1
2018-09-27T16:25:01.105Z,8290.9
2018-09-27T16:26:06.098Z,7983.1
2018-09-27T16:27:01.311Z,7643.9
2018-09-27T16:28:01.100Z,7280.7
2018-09-27T16:29:01.067Z,6919.4
2018-09-27T16:30:06.111Z,6592.7
2018-09-27T16:31:01.105Z,6275.3
2018-09-27T16:32:01.253Z,5954.7
2018-09-27T16:33:01.065Z,5636.0
2018-09-27T16:34:01.101Z,5318.3
2018-09-27T16:35:01.102Z,5006.1
2018-09-27T16:36:01.099Z,4730.5
2018-09-27T16:37:01.244Z,4486.3
2018-09-27T16:38:01.116Z,4280.9
2018-09-27T16:39:01.097Z,4088.3
2018-09-27T16:40:06.105Z,3902.4
2018-09-27T16:41:01.111Z,3721.4
2018-09-27T16:42:01.250Z,3570.7
2018-09-27T16:43:01.108Z,3472.3
2018-09-27T16:44:01.105Z,3388.9
2018-09-27T16:46:01.086Z,3293.1
2018-09-27T16:47:01.237Z,3191.4
2018-09-27T16:48:01.054Z,3098.0
2018-09-27T16:49:01.096Z,3026.5
2018-09-27T16:50:01.087Z,2959.3
2018-09-27T16:51:01.093Z,2889.7
2018-09-27T16:52:01.224Z,2805.1
2018-09-27T16:53:01.087Z,2714.9
2018-09-27T16:54:01.089Z,2627.9
2018-09-27T16:55:01.124Z,2537.3
2018-09-27T16:56:01.101Z,2452.3
2018-09-27T16:57:01.241Z,2367.4
2018-09-27T16:58:01.090Z,2279.7
2018-09-27T16:59:01.090Z,2197.9
2018-09-27T17:00:01.124Z,2138.1
2018-09-27T17:01:01.091Z,2099.9
2018-09-27T17:02:01.237Z,2080.5
2018-09-27T17:03:01.153Z,2047.0
2018-09-27T17:04:01.091Z,1977.1
2018-09-27T17:05:06.094Z,1898.9
2018-09-27T17:06:01.091Z,1820.3
2018-09-27T17:07:01.237Z,1742.6
2018-09-27T17:08:01.157Z,1678.0
2018-09-27T17:09:01.094Z,1617.0
2018-09-27T17:10:01.093Z,1567.7
2018-09-27T17:11:06.133Z,1521.0
2018-09-27T17:12:01.302Z,1470.3
2018-09-27T17:13:01.252Z,1413.4
2018-09-27T17:14:01.097Z,1341.2
2018-09-27T17:15:01.182Z,1252.8
2018-09-27T17:16:01.122Z,1152.7
2018-09-27T17:17:01.236Z,1051.7
2018-09-27T17:18:01.098Z,960.1
2018-09-27T17:19:01.098Z,879.1
2018-09-27T17:20:01.100Z,798.6
2018-09-27T17:21:01.137Z,722.7
2018-09-27T17:22:01.247Z,658.9
2018-09-27T17:23:01.104Z,603.1
2018-09-27T17:24:01.104Z,548.1
2018-09-27T17:25:01.112Z,489.5
2018-09-27T17:26:01.101Z,428.2
2018-09-27T17:27:01.246Z,370.3
2018-09-27T17:29:01.086Z,320.6
2018-09-27T17:30:01.158Z,278.1
2018-09-27T17:31:01.111Z,241.6
2018-09-27T17:32:01.087Z,211.8
2018-09-27T17:33:01.291Z,185.7
2018-09-27T17:34:01.054Z,161.3
2018-09-27T17:35:01.086Z,137.7
2018-09-27T17:36:06.090Z,115.5
2018-09-27T17:37:01.083Z,95.9
2018-09-27T17:38:01.232Z,79.1
2018-09-27T17:39:01.085Z,64.3
2018-09-27T17:40:01.052Z,51.9
2018-09-27T17:41:06.090Z,42.7
2018-09-27T17:42:01.089Z,36.2
2018-09-27T17:43:01.930Z,30.9
2018-09-27T17:44:01.098Z,26.2
2018-09-27T17:45:01.093Z,21.7
2018-09-27T17:46:01.235Z,18.0
2018-09-27T17:47:01.110Z,15.1
2018-09-27T17:48:01.303Z,12.8
2018-09-27T17:49:01.092Z,10.8
2018-09-27T17:50:01.057Z,9.1
2018-09-27T17:51:06.096Z,7.6
2018-09-27T17:52:06.106Z,6.4
2018-09-27T17:53:01.319Z,5.4
2018-09-27T17:54:01.093Z,4.6
2018-09-27T17:55:01.091Z,3.9
2018-09-27T17:56:06.098Z,3.2
2018-09-27T17:57:01.095Z,2.7
2018-09-27T17:58:01.248Z,2.2
2018-09-27T17:59:01.155Z,1.8
2018-09-27T18:00:01.096Z,1.5
2018-09-27T18:01:06.092Z,1.2
2018-09-27T18:02:01.090Z,0.9
2018-09-27T18:03:01.284Z,0.7
2018-09-27T18:04:01.093Z,0.6
2018-09-27T18:05:01.094Z,0.5
2018-09-27T18:06:06.096Z,0.4
2018-09-27T18:07:06.097Z,0.3
2018-09-27T18:09:01.371Z,0.2
2018-09-27T18:10:01.153Z,0.1
2018-09-27T23:15:01.239Z,0.1
2018-09-27T23:30:01.366Z,0.1
2018-09-27T23:56:01.271Z,0.1
2018-09-27T23:58:01.105Z,0.2
2018-09-27T23:59:01.073Z,0.3
